This is the latest recevied weather packets stored in our database for station/object N8ESG-13. If no packets are shown the sender has not sent any weather packets the latest 10 day(s).
| Time | Temp. | Humidity | Pressure | Rain* | Wind** | Luminosity | Snow |
|---|---|---|---|---|---|---|---|
| 1777762836 | 5° C | 65% | 1015.3 hPa | 0 mm | - | - | - |
| 1777753816 | 6.11° C | 60% | 1015.1 hPa | 0 mm | - | - | - |
| 1777744836 | 6.67° C | 58% | 1015.9 hPa | 0 mm | - | - | - |
| 1777725016 | 1.67° C | 92% | 1015 hPa | 0 mm | - | - | - |
| 1777707016 | 2.22° C | 92% | 1013.6 hPa | 0.25 mm | - | - | - |
| 1777690817 | 3.33° C | 92% | 1014.1 hPa | 0 mm | - | - | - |
| 1777678216 | 5° C | 82% | 1012.6 hPa | 0 mm | - | - | - |
| 1777674617 | 5.56° C | 80% | 1012.2 hPa | 0 mm | - | - | - |
| 1777667416 | 4.44° C | 91% | 1011.6 hPa | 0.25 mm | - | - | - |
| 1777629656 | 5.56° C | 90% | 1011.4 hPa | 0.25 mm | - | - | - |
| 1777627816 | 5.56° C | 88% | 1011.7 hPa | 0 mm | - | - | - |
| 1777617016 | 5.56° C | 82% | 1011.8 hPa | 0 mm | - | - | - |
| 1777604436 | 4.44° C | 82% | 1013 hPa | 0 mm | - | - | - |
| 1777575616 | 10.56° C | 69% | 1012.8 hPa | 0 mm | - | - | - |
| 1777573816 | 10° C | 68% | 1012.9 hPa | 0 mm | - | - | - |
| 1777564836 | 7.78° C | 76% | 1012.8 hPa | 0 mm | - | - | - |
| 1777559416 | 6.11° C | 84% | 1012.1 hPa | 0 mm | - | - | - |
| 1777557636 | 6.11° C | 86% | 1011.6 hPa | 0 mm | - | - | - |
| 1777543216 | 3.89° C | 93% | 1009.7 hPa | 0 mm | - | - | - |
| 1777539656 | 3.89° C | 93% | 1009.5 hPa | 0.25 mm | - | - | - |
| 1777523416 | 5.56° C | 93% | 1009.5 hPa | 0 mm | - | - | - |
| 1777521616 | 6.11° C | 93% | 1009.8 hPa | 0.25 mm | - | - | - |
| 1777516216 | 6.11° C | 93% | 1009.8 hPa | 0 mm | - | - | - |
| 1777512616 | 6.67° C | 93% | 1009.5 hPa | 0 mm | - | - | - |
| 1777509036 | 7.22° C | 93% | 1008.8 hPa | 0 mm | - | - | - |
* Rain latest hour (hover to see other rain measurements)
** Current wind speed in m/s (hover to see current wind gust speed)